createdAt,value
2022-10-03T00:02:04.980Z,98948.50
2022-10-03T00:04:19.569Z,98953.72
2022-10-03T00:06:33.390Z,98953.72
2022-10-03T00:09:04.161Z,98951.94
2022-10-03T00:11:12.844Z,98972.09
2022-10-03T00:13:22.465Z,98972.94
2022-10-03T00:15:28.333Z,98981.75
2022-10-03T00:17:40.751Z,98976.50
2022-10-03T00:19:51.222Z,98986.97
2022-10-03T00:22:04.191Z,98970.53
2022-10-03T00:24:15.767Z,98977.47
2022-10-03T00:26:28.421Z,98973.03
2022-10-03T00:28:52.725Z,98979.22
2022-10-03T00:31:07.370Z,98987.09
2022-10-03T00:33:19.818Z,98994.13
2022-10-03T00:35:34.203Z,98986.25
2022-10-03T00:37:41.289Z,98985.44
2022-10-03T00:39:55.229Z,98988.88
2022-10-03T00:42:31.781Z,98995.06
2022-10-03T00:45:04.846Z,99003.78
2022-10-03T00:47:40.477Z,99009.03
2022-10-03T00:50:33.625Z,99009.16
2022-10-03T00:52:52.528Z,99014.41
2022-10-03T00:55:04.476Z,99012.69
2022-10-03T00:57:20.309Z,99015.44
2022-10-03T00:59:37.990Z,99005.03
2022-10-03T01:01:46.742Z,99005.13
2022-10-03T01:03:56.984Z,99006.06
2022-10-03T01:06:10.479Z,99011.31
2022-10-03T01:08:46.727Z,99007.88
2022-10-03T01:10:55.076Z,99008.69
2022-10-03T01:13:09.025Z,99001.78
2022-10-03T01:15:20.461Z,99000.81
2022-10-03T01:17:33.464Z,99007.75
2022-10-03T01:19:59.512Z,99014.69
2022-10-03T01:22:16.664Z,99019.09
2022-10-03T01:24:48.672Z,99005.97
2022-10-03T01:26:56.706Z,99004.22
2022-10-03T01:29:21.730Z,98998.22
2022-10-03T01:31:27.942Z,99005.13
2022-10-03T01:33:33.421Z,99009.66
2022-10-03T01:35:43.007Z,98999.34
2022-10-03T01:37:52.578Z,99001.91
2022-10-03T01:39:58.519Z,99001.91
2022-10-03T01:42:07.138Z,99004.59
2022-10-03T01:44:16.386Z,98994.09
2022-10-03T01:46:22.900Z,99002.19
2022-10-03T01:48:32.222Z,99009.31
2022-10-03T01:50:39.298Z,99014.56
2022-10-03T01:52:49.189Z,99016.13
2022-10-03T01:54:57.830Z,99017.91
2022-10-03T01:57:04.077Z,99027.47
2022-10-03T01:59:11.532Z,99019.59
2022-10-03T02:01:22.482Z,99030.91
2022-10-03T02:03:29.637Z,99029.13
2022-10-03T02:05:40.077Z,99031.66
2022-10-03T02:07:48.486Z,99036.06
2022-10-03T02:09:59.141Z,99036.91
2022-10-03T02:12:09.291Z,99037.72
2022-10-03T02:14:23.096Z,99039.63
2022-10-03T02:16:35.052Z,99039.63
2022-10-03T02:18:44.984Z,99044.03
2022-10-03T02:20:50.360Z,99037.97
2022-10-03T02:22:55.453Z,99036.28
2022-10-03T02:25:10.508Z,99047.50
2022-10-03T02:27:42.132Z,99040.47
2022-10-03T02:29:57.012Z,99049.28
2022-10-03T02:32:38.633Z,99038.91
2022-10-03T02:35:14.937Z,99052.22
2022-10-03T02:37:33.937Z,99050.53
2022-10-03T02:40:21.573Z,99047.91
2022-10-03T02:42:52.185Z,99050.09
2022-10-03T02:45:15.310Z,99050.19
2022-10-03T02:47:48.811Z,99049.28
2022-10-03T02:50:23.954Z,99049.06
2022-10-03T02:53:04.750Z,99052.63
2022-10-03T02:55:28.928Z,99053.66
2022-10-03T02:57:57.212Z,99056.56
2022-10-03T03:00:09.983Z,99054.16
2022-10-03T03:02:33.444Z,99049.00
2022-10-03T03:04:53.225Z,99053.44
2022-10-03T03:07:12.638Z,99054.34
2022-10-03T03:09:54.542Z,99049.88
2022-10-03T03:12:30.491Z,99050.59
2022-10-03T03:15:08.388Z,99050.41
2022-10-03T03:17:23.353Z,99050.41
2022-10-03T03:19:47.967Z,99054.72
2022-10-03T03:21:54.841Z,99050.31
2022-10-03T03:24:36.340Z,99049.28
2022-10-03T03:27:10.189Z,99038.78
2022-10-03T03:29:21.478Z,99049.28
2022-10-03T03:31:31.450Z,99046.53
2022-10-03T03:33:41.145Z,99042.13
2022-10-03T03:35:57.498Z,99042.03
2022-10-03T03:38:08.011Z,99040.13
2022-10-03T03:40:29.543Z,99044.44
2022-10-03T03:42:56.754Z,99049.69
2022-10-03T03:45:09.629Z,99050.53
2022-10-03T03:47:22.979Z,99047.81
2022-10-03T03:49:32.498Z,99052.22
2022-10-03T03:51:43.620Z,99052.94
2022-10-03T03:54:19.656Z,99059.16
2022-10-03T03:56:35.439Z,99059.16
2022-10-03T03:58:41.854Z,99060.91
2022-10-03T04:01:00.201Z,99066.06
2022-10-03T04:03:22.210Z,99061.69
2022-10-03T04:05:36.950Z,99062.50
2022-10-03T04:07:54.631Z,99067.53
2022-10-03T04:10:22.646Z,99067.53
2022-10-03T04:12:38.617Z,99070.00
2022-10-03T04:15:01.000Z,99074.28
2022-10-03T04:17:35.203Z,99072.41
2022-10-03T04:19:49.618Z,99075.97
2022-10-03T04:22:00.620Z,99075.16
2022-10-03T04:24:19.750Z,99071.66
2022-10-03T04:26:31.205Z,99075.25
2022-10-03T04:28:46.441Z,99074.44
2022-10-03T04:30:58.395Z,99075.25
2022-10-03T04:33:10.371Z,99074.44
2022-10-03T04:35:26.255Z,99079.69
2022-10-03T04:37:33.368Z,99074.44
2022-10-03T04:39:39.017Z,99073.56
2022-10-03T04:41:47.351Z,99070.94
2022-10-03T04:44:00.280Z,99068.38
2022-10-03T04:46:16.376Z,99064.19
2022-10-03T04:48:28.985Z,99069.44
2022-10-03T04:50:38.109Z,99066.06
2022-10-03T04:52:44.028Z,99065.31
2022-10-03T04:54:53.208Z,99063.75
2022-10-03T04:57:03.124Z,99070.06
2022-10-03T04:59:14.047Z,99061.53
2022-10-03T05:01:21.598Z,99069.59
2022-10-03T05:03:33.317Z,99062.78
2022-10-03T05:05:49.630Z,99063.09
2022-10-03T05:07:59.738Z,99069.47
2022-10-03T05:10:18.191Z,99064.50
2022-10-03T05:12:29.906Z,99063.25
2022-10-03T05:14:51.924Z,99069.53
2022-10-03T05:16:58.302Z,99063.84
2022-10-03T05:19:11.572Z,99072.63
2022-10-03T05:21:16.919Z,99066.66
2022-10-03T05:23:26.128Z,99068.53
2022-10-03T05:25:36.430Z,99071.13
2022-10-03T05:27:45.290Z,99068.53
2022-10-03T05:29:53.780Z,99081.63
2022-10-03T05:32:07.999Z,99078.16
2022-10-03T05:34:22.011Z,99080.88
2022-10-03T05:36:34.247Z,99080.25
2022-10-03T05:39:20.339Z,99075.31
2022-10-03T05:41:26.805Z,99078.03
2022-10-03T05:43:38.876Z,99083.38
2022-10-03T05:45:49.867Z,99087.84
2022-10-03T05:47:55.508Z,99087.84
2022-10-03T05:50:49.312Z,99099.38
2022-10-03T05:53:08.633Z,99103.94
2022-10-03T05:55:22.021Z,99102.28
2022-10-03T05:57:44.991Z,99107.53
2022-10-03T06:00:07.302Z,99112.84
2022-10-03T06:02:46.521Z,99114.16
2022-10-03T06:05:08.939Z,99119.69
2022-10-03T06:07:20.933Z,99131.97
2022-10-03T06:09:39.095Z,99134.66
2022-10-03T06:11:55.971Z,99132.88
2022-10-03T06:14:17.255Z,99141.59
2022-10-03T06:16:30.252Z,99140.66
2022-10-03T06:18:55.473Z,99145.59
2022-10-03T06:21:14.107Z,99141.03
2022-10-03T06:23:34.103Z,99144.22
2022-10-03T06:26:18.228Z,99150.91
2022-10-03T06:28:42.911Z,99147.72
2022-10-03T06:31:11.267Z,99146.41
2022-10-03T06:33:57.541Z,99149.78
2022-10-03T06:36:34.601Z,99153.88
2022-10-03T06:39:21.821Z,99162.50
2022-10-03T06:41:48.073Z,99172.97
2022-10-03T06:44:05.637Z,99165.78
2022-10-03T06:46:39.605Z,99166.50
2022-10-03T06:49:13.833Z,99162.88
2022-10-03T06:51:32.844Z,99178.38
2022-10-03T06:54:00.774Z,99168.75
2022-10-03T06:56:26.180Z,99181.84
2022-10-03T06:59:07.624Z,99177.44
2022-10-03T07:02:10.384Z,99179.03
2022-10-03T07:04:31.949Z,99184.94
2022-10-03T07:06:43.662Z,99182.22
2022-10-03T07:09:28.890Z,99189.88
2022-10-03T07:11:43.481Z,99187.34
2022-10-03T07:14:09.095Z,99188.09
2022-10-03T07:16:52.003Z,99192.22
2022-10-03T07:19:20.122Z,99186.56
2022-10-03T07:21:34.865Z,99192.34
2022-10-03T07:24:16.817Z,99191.97
2022-10-03T07:26:55.451Z,99199.53
2022-10-03T07:29:09.342Z,99198.72
2022-10-03T07:31:17.871Z,99194.50
2022-10-03T07:33:39.282Z,99204.34
2022-10-03T07:36:03.803Z,99205.19
2022-10-03T07:40:57.915Z,99209.50
2022-10-03T07:43:25.799Z,99209.19
2022-10-03T07:45:36.138Z,99204.63
2022-10-03T07:48:28.740Z,99217.25
2022-10-03T07:50:57.948Z,99216.84
2022-10-03T07:53:12.542Z,99217.59
2022-10-03T07:55:28.936Z,99231.28
2022-10-03T07:57:55.913Z,99225.53
2022-10-03T08:00:12.123Z,99222.41
2022-10-03T08:02:33.668Z,99229.84
2022-10-03T08:05:06.720Z,99229.53
2022-10-03T08:07:23.642Z,99221.38
2022-10-03T08:09:50.810Z,99227.91
2022-10-03T08:12:33.283Z,99236.31
2022-10-03T08:14:47.794Z,99236.97
2022-10-03T08:17:31.824Z,99228.03
2022-10-03T08:19:51.890Z,99225.97
2022-10-03T08:22:02.490Z,99236.66
2022-10-03T08:24:13.781Z,99232.16
2022-10-03T08:26:20.565Z,99233.59
2022-10-03T08:28:35.355Z,99230.03
2022-10-03T08:30:53.002Z,99234.06
2022-10-03T08:33:16.737Z,99229.53
2022-10-03T08:35:38.781Z,99243.63
2022-10-03T08:38:09.553Z,99237.00
2022-10-03T08:40:46.334Z,99240.00
2022-10-03T08:43:29.901Z,99234.91
2022-10-03T08:45:52.072Z,99228.59
2022-10-03T08:48:33.237Z,99229.91
2022-10-03T08:51:05.604Z,99225.69
2022-10-03T08:53:37.160Z,99232.84
2022-10-03T08:55:49.776Z,99229.56
2022-10-03T08:58:30.196Z,99230.69
2022-10-03T09:00:48.212Z,99243.34
2022-10-03T09:03:34.435Z,99241.75
2022-10-03T09:06:09.965Z,99233.78
2022-10-03T09:08:38.220Z,99239.34
2022-10-03T09:11:07.403Z,99226.69
2022-10-03T09:13:48.935Z,99229.84
2022-10-03T09:16:40.128Z,99232.50
2022-10-03T09:18:51.298Z,99226.72
2022-10-03T09:21:37.491Z,99225.06
2022-10-03T09:23:57.588Z,99230.72
2022-10-03T09:26:19.090Z,99224.84
2022-10-03T09:28:49.550Z,99231.03
2022-10-03T09:30:56.969Z,99225.69
2022-10-03T09:33:28.939Z,99224.63
2022-10-03T09:35:46.455Z,99227.28
2022-10-03T09:38:03.545Z,99229.03
2022-10-03T09:40:27.063Z,99227.38
2022-10-03T09:42:59.246Z,99222.31
2022-10-03T09:45:14.878Z,99222.75
2022-10-03T09:47:51.213Z,99210.31
2022-10-03T09:50:27.871Z,99227.75
2022-10-03T09:52:42.358Z,99229.44
2022-10-03T09:55:03.659Z,99231.88
2022-10-03T09:57:38.775Z,99228.22
2022-10-03T09:59:53.663Z,99235.19
2022-10-03T10:02:08.234Z,99227.97
2022-10-03T10:04:54.417Z,99228.66
2022-10-03T10:07:35.269Z,99230.00
2022-10-03T10:09:54.177Z,99222.72
2022-10-03T10:12:23.859Z,99228.44
2022-10-03T10:14:44.824Z,99222.91
2022-10-03T10:17:04.994Z,99228.72
2022-10-03T10:19:30.208Z,99226.53
2022-10-03T10:21:47.818Z,99224.97
2022-10-03T10:24:01.016Z,99224.16
2022-10-03T10:26:49.572Z,99219.00
2022-10-03T10:29:38.090Z,99224.97
2022-10-03T10:32:26.930Z,99227.81
2022-10-03T10:35:07.300Z,99230.53
2022-10-03T10:37:49.076Z,99234.88
2022-10-03T10:40:22.791Z,99239.75
2022-10-03T10:43:01.678Z,99235.78
2022-10-03T10:45:40.216Z,99238.03
2022-10-03T10:48:27.242Z,99244.50
2022-10-03T10:50:57.341Z,99235.38
2022-10-03T10:53:40.046Z,99232.88
2022-10-03T10:56:23.365Z,99235.56
2022-10-03T10:59:09.120Z,99231.69
2022-10-03T11:01:48.270Z,99227.91
2022-10-03T11:04:31.879Z,99222.13
2022-10-03T11:07:03.525Z,99222.59
2022-10-03T11:09:48.065Z,99223.16
2022-10-03T11:12:38.654Z,99222.25
2022-10-03T11:15:36.093Z,99226.00
2022-10-03T11:18:08.412Z,99218.97
2022-10-03T11:20:41.357Z,99209.44
2022-10-03T11:23:21.007Z,99213.38
2022-10-03T11:25:54.221Z,99201.94
2022-10-03T11:28:41.804Z,99207.00
2022-10-03T11:31:13.130Z,99201.91
2022-10-03T11:33:43.250Z,99199.00
2022-10-03T11:36:33.433Z,99207.50
2022-10-03T11:38:59.222Z,99199.69
2022-10-03T11:41:09.950Z,99195.84
2022-10-03T11:43:46.477Z,99200.84
2022-10-03T11:45:52.971Z,99205.75
2022-10-03T11:48:01.267Z,99202.00
2022-10-03T11:50:29.315Z,99197.75
2022-10-03T11:52:35.101Z,99201.56
2022-10-03T11:54:40.929Z,99200.03
2022-10-03T11:56:45.940Z,99197.94
2022-10-03T11:58:58.262Z,99195.44
2022-10-03T12:01:22.356Z,99188.47
2022-10-03T12:03:29.995Z,99188.25
2022-10-03T12:05:44.273Z,99197.38
2022-10-03T12:08:08.947Z,99202.19
2022-10-03T12:10:18.283Z,99189.16
2022-10-03T12:12:30.137Z,99193.31
2022-10-03T12:14:38.190Z,99187.09
2022-10-03T12:16:54.185Z,99188.56
2022-10-03T12:19:02.184Z,99186.06
2022-10-03T12:21:11.179Z,99185.06
2022-10-03T12:23:25.267Z,99177.69
2022-10-03T12:25:30.261Z,99184.78
2022-10-03T12:27:39.664Z,99184.28
2022-10-03T12:29:48.145Z,99181.31
2022-10-03T12:32:01.277Z,99172.81
2022-10-03T12:34:19.012Z,99168.91
2022-10-03T12:36:29.181Z,99168.78
2022-10-03T12:38:46.534Z,99175.50
2022-10-03T12:41:01.835Z,99162.81
2022-10-03T12:43:20.293Z,99166.38
2022-10-03T12:45:32.399Z,99161.13
2022-10-03T12:47:55.921Z,99159.94
2022-10-03T12:50:04.816Z,99159.69
2022-10-03T12:52:15.511Z,99162.56
2022-10-03T12:54:29.977Z,99153.25
2022-10-03T12:56:39.595Z,99159.47
2022-10-03T12:58:53.651Z,99154.91
2022-10-03T13:01:04.803Z,99152.03
2022-10-03T13:03:19.052Z,99156.34
2022-10-03T13:05:37.026Z,99146.53
2022-10-03T13:07:46.911Z,99148.13
2022-10-03T13:10:19.586Z,99142.84
2022-10-03T13:12:31.329Z,99144.09
2022-10-03T13:15:02.299Z,99145.34
2022-10-03T13:17:14.796Z,99140.31
2022-10-03T13:19:19.894Z,99139.72
2022-10-03T13:21:47.542Z,99133.13
2022-10-03T13:23:53.998Z,99133.22
2022-10-03T13:26:11.040Z,99138.59
2022-10-03T13:28:18.701Z,99135.72
2022-10-03T13:30:24.548Z,99129.47
2022-10-03T13:32:32.998Z,99135.00
2022-10-03T13:34:44.542Z,99126.59
2022-10-03T13:36:51.390Z,99128.91
2022-10-03T13:39:13.699Z,99126.63
2022-10-03T13:41:25.473Z,99127.59
2022-10-03T13:43:36.229Z,99135.03
2022-10-03T13:45:42.212Z,99121.94
2022-10-03T13:47:51.866Z,99118.38
2022-10-03T13:49:58.834Z,99117.66
2022-10-03T13:52:07.403Z,99121.94
2022-10-03T13:54:13.672Z,99117.28
2022-10-03T13:56:22.617Z,99126.75
2022-10-03T13:58:35.564Z,99119.22
2022-10-03T14:00:50.993Z,99120.63
2022-10-03T14:03:13.699Z,99122.81
2022-10-03T14:05:33.595Z,99114.41
2022-10-03T14:07:43.894Z,99109.63
2022-10-03T14:10:02.045Z,99106.38
2022-10-03T14:12:13.519Z,99100.25
2022-10-03T14:14:44.007Z,99108.16
2022-10-03T14:16:54.887Z,99103.13
2022-10-03T14:19:05.149Z,99097.47
2022-10-03T14:21:33.295Z,99102.28
2022-10-03T14:23:39.672Z,99108.88
2022-10-03T14:25:47.063Z,99105.19
2022-10-03T14:27:55.345Z,99103.03
2022-10-03T14:30:06.730Z,99093.19
2022-10-03T14:32:42.440Z,99084.34
2022-10-03T14:34:48.208Z,99086.94
2022-10-03T14:36:55.230Z,99091.38
2022-10-03T14:39:26.801Z,99086.81
2022-10-03T14:41:45.303Z,99089.22
2022-10-03T14:43:51.229Z,99080.00
2022-10-03T14:45:57.178Z,99088.72
2022-10-03T14:48:07.596Z,99080.56
2022-10-03T14:50:18.855Z,99078.28
2022-10-03T14:52:28.925Z,99076.94
2022-10-03T14:54:37.564Z,99067.25
2022-10-03T14:56:44.645Z,99077.66
2022-10-03T14:58:50.315Z,99071.19
2022-10-03T15:00:55.376Z,99074.41
2022-10-03T15:02:58.431Z,99068.78
2022-10-03T15:05:07.992Z,99072.66
2022-10-03T15:07:14.616Z,99067.53
2022-10-03T15:09:20.198Z,99073.97
2022-10-03T15:11:26.993Z,99069.91
2022-10-03T15:13:34.794Z,99066.53
2022-10-03T15:15:40.238Z,99064.63
2022-10-03T15:17:47.864Z,99056.63
2022-10-03T15:19:54.997Z,99062.72
2022-10-03T15:22:05.825Z,99070.72
2022-10-03T15:24:12.709Z,99073.34
2022-10-03T15:26:19.276Z,99071.78
2022-10-03T15:28:24.405Z,99070.34
2022-10-03T15:30:31.941Z,99074.75
2022-10-03T15:32:37.976Z,99076.56
2022-10-03T15:34:42.170Z,99072.88
2022-10-03T15:36:48.881Z,99076.09
2022-10-03T15:38:55.211Z,99070.72
2022-10-03T15:41:10.049Z,99068.91
2022-10-03T15:43:28.549Z,99068.81
2022-10-03T15:45:33.691Z,99057.34
2022-10-03T15:47:42.647Z,99055.41
2022-10-03T15:49:50.169Z,99065.72
2022-10-03T15:51:54.363Z,99069.31
2022-10-03T15:53:59.550Z,99066.81
2022-10-03T15:56:12.202Z,99062.47
2022-10-03T15:58:18.712Z,99066.81
2022-10-03T16:00:24.629Z,99058.63
2022-10-03T16:02:33.598Z,99058.38
2022-10-03T16:04:40.777Z,99058.47
2022-10-03T16:06:49.406Z,99055.84
2022-10-03T16:08:59.505Z,99056.91
2022-10-03T16:11:09.145Z,99063.97
2022-10-03T16:13:25.128Z,99058.94
2022-10-03T16:15:37.946Z,99057.38
2022-10-03T16:17:46.008Z,99058.34
2022-10-03T16:19:54.255Z,99055.69
2022-10-03T16:22:06.371Z,99059.38
2022-10-03T16:24:19.021Z,99056.97
2022-10-03T16:26:24.842Z,99050.19
2022-10-03T16:28:32.453Z,99054.69
2022-10-03T16:30:38.719Z,99058.28
2022-10-03T16:32:46.763Z,99064.72
2022-10-03T16:34:50.497Z,99050.09
2022-10-03T16:36:54.517Z,99056.44
2022-10-03T16:38:59.295Z,99055.91
2022-10-03T16:41:05.101Z,99054.59
2022-10-03T16:43:11.464Z,99051.38
2022-10-03T16:45:25.228Z,99050.72
2022-10-03T16:47:37.864Z,99048.31
2022-10-03T16:50:02.236Z,99051.38
2022-10-03T16:52:07.225Z,99050.06
2022-10-03T16:54:13.086Z,99054.56
2022-10-03T16:56:18.150Z,99043.56
2022-10-03T16:58:26.290Z,99046.50
2022-10-03T17:00:36.023Z,99050.56
2022-10-03T17:02:39.848Z,99051.78
2022-10-03T17:04:45.390Z,99052.22
2022-10-03T17:06:49.843Z,99049.31
2022-10-03T17:08:54.136Z,99051.72
2022-10-03T17:10:58.602Z,99050.59
2022-10-03T17:13:05.059Z,99047.66
2022-10-03T17:15:10.064Z,99049.03
2022-10-03T17:17:25.517Z,99056.50
2022-10-03T17:19:33.601Z,99062.16
2022-10-03T17:21:39.394Z,99063.53
2022-10-03T17:23:46.741Z,99062.28
2022-10-03T17:25:57.074Z,99053.13
2022-10-03T17:28:00.696Z,99053.53
2022-10-03T17:30:07.300Z,99051.44
2022-10-03T17:32:16.338Z,99048.28
2022-10-03T17:34:22.955Z,99047.00
2022-10-03T17:36:52.691Z,99043.22
2022-10-03T17:39:03.440Z,99036.88
2022-10-03T17:41:18.949Z,99032.78
2022-10-03T17:43:31.566Z,99034.78
2022-10-03T17:45:40.144Z,99036.00
2022-10-03T17:47:52.069Z,99031.25
2022-10-03T17:50:00.435Z,99036.06
2022-10-03T17:52:05.280Z,99034.06
2022-10-03T17:54:15.155Z,99029.31
2022-10-03T17:56:22.019Z,99035.03
2022-10-03T17:58:28.682Z,99037.22
2022-10-03T18:00:35.777Z,99033.22
2022-10-03T18:02:46.930Z,99024.63
2022-10-03T18:04:57.354Z,99036.03
2022-10-03T18:07:03.331Z,99027.72
2022-10-03T18:09:10.986Z,99023.63
2022-10-03T18:11:20.740Z,99025.88
2022-10-03T18:13:27.731Z,99029.75
2022-10-03T18:16:11.232Z,99019.09
2022-10-03T18:18:50.368Z,99017.22
2022-10-03T18:20:58.265Z,99019.28
2022-10-03T18:23:05.094Z,99017.03
2022-10-03T18:25:28.538Z,99009.75
2022-10-03T18:27:53.871Z,99020.59
2022-10-03T18:29:58.343Z,99014.63
2022-10-03T18:32:12.427Z,99010.50
2022-10-03T18:34:20.103Z,99011.53
2022-10-03T18:36:27.649Z,99007.13
2022-10-03T18:38:32.559Z,99004.72
2022-10-03T18:40:43.342Z,99005.56
2022-10-03T18:42:50.335Z,99016.13
2022-10-03T18:44:54.277Z,99015.38
2022-10-03T18:47:08.755Z,99012.84
2022-10-03T18:49:35.157Z,99023.56
2022-10-03T18:51:42.413Z,99015.91
2022-10-03T18:53:47.978Z,99017.06
2022-10-03T18:55:57.180Z,99012.94
2022-10-03T18:58:09.851Z,99013.13
2022-10-03T19:00:19.015Z,99015.00
2022-10-03T19:02:27.136Z,99023.84
2022-10-03T19:04:39.795Z,99018.81
2022-10-03T19:06:46.808Z,99006.75
2022-10-03T19:08:52.004Z,99011.22
2022-10-03T19:10:57.554Z,99015.72
2022-10-03T19:13:04.775Z,99015.81
2022-10-03T19:15:18.938Z,99009.75
2022-10-03T19:17:25.583Z,99009.94
2022-10-03T19:19:33.436Z,99012.53
2022-10-03T19:21:39.765Z,99014.03
2022-10-03T19:23:47.314Z,99012.44
2022-10-03T19:25:53.490Z,99016.25
2022-10-03T19:28:01.613Z,99012.31
2022-10-03T19:30:08.229Z,99015.09
2022-10-03T19:32:19.429Z,99013.44
2022-10-03T19:34:25.740Z,99016.97
2022-10-03T19:36:31.118Z,99017.06
2022-10-03T19:38:35.736Z,99020.50
2022-10-03T19:40:51.416Z,99018.06
2022-10-03T19:42:59.197Z,99030.59
2022-10-03T19:45:02.551Z,99023.09
2022-10-03T19:47:13.229Z,99023.44
2022-10-03T19:49:27.636Z,99021.97
2022-10-03T19:51:30.765Z,99022.97
2022-10-03T19:53:33.880Z,99023.13
2022-10-03T19:55:39.050Z,99021.44
2022-10-03T19:57:46.435Z,99018.94
2022-10-03T19:59:52.519Z,99017.09
2022-10-03T20:01:55.581Z,99016.91
2022-10-03T20:04:36.159Z,99017.91
2022-10-03T20:06:41.819Z,99013.63
2022-10-03T20:08:46.874Z,99016.56
2022-10-03T20:11:07.803Z,99015.88
2022-10-03T20:13:12.528Z,99008.97
2022-10-03T20:15:21.008Z,99005.59
2022-10-03T20:17:25.021Z,99007.47
2022-10-03T20:19:29.146Z,99006.69
2022-10-03T20:21:33.501Z,99006.69
2022-10-03T20:23:41.557Z,99009.41
2022-10-03T20:25:50.044Z,99007.03
2022-10-03T20:27:55.315Z,99007.81
2022-10-03T20:30:07.660Z,99001.00
2022-10-03T20:32:15.517Z,99007.25
2022-10-03T20:34:23.185Z,99002.03
2022-10-03T20:36:28.006Z,99006.38
2022-10-03T20:38:41.609Z,98998.63
2022-10-03T20:40:46.279Z,99001.50
2022-10-03T20:42:50.261Z,98996.38
2022-10-03T20:44:59.141Z,99000.09
2022-10-03T20:47:07.785Z,98999.31
2022-10-03T20:49:27.457Z,98998.59
2022-10-03T20:51:40.398Z,98996.16
2022-10-03T20:53:44.334Z,98994.44
2022-10-03T20:55:50.556Z,98988.56
2022-10-03T20:58:01.170Z,98987.91
2022-10-03T21:00:08.863Z,98982.84
2022-10-03T21:02:20.874Z,98985.56
2022-10-03T21:04:27.968Z,98980.59
2022-10-03T21:06:34.251Z,98990.06
2022-10-03T21:08:38.720Z,98996.91
2022-10-03T21:10:45.602Z,98996.91
2022-10-03T21:12:50.413Z,98999.50
2022-10-03T21:14:57.620Z,99002.22
2022-10-03T21:17:00.876Z,98991.03
2022-10-03T21:19:12.946Z,98988.50
2022-10-03T21:21:20.639Z,98991.03
2022-10-03T21:23:25.259Z,98980.75
2022-10-03T21:25:31.840Z,98985.81
2022-10-03T21:27:35.460Z,98978.16
2022-10-03T21:29:42.285Z,98980.94
2022-10-03T21:31:51.112Z,98972.34
2022-10-03T21:34:01.006Z,98977.75
2022-10-03T21:36:09.974Z,98968.56
2022-10-03T21:38:20.671Z,98961.97
2022-10-03T21:40:43.798Z,98958.03
2022-10-03T21:42:55.879Z,98961.72
2022-10-03T21:45:10.620Z,98964.66
2022-10-03T21:47:23.153Z,98955.34
2022-10-03T21:49:38.664Z,98948.59
2022-10-03T21:51:59.464Z,98950.53
2022-10-03T21:54:18.584Z,98956.66
2022-10-03T21:56:43.199Z,98952.44
2022-10-03T21:59:08.668Z,98944.72
2022-10-03T22:01:15.778Z,98943.88
2022-10-03T22:03:23.236Z,98938.00
2022-10-03T22:05:33.976Z,98938.91
2022-10-03T22:07:39.881Z,98940.00
2022-10-03T22:09:48.555Z,98939.06
2022-10-03T22:11:55.261Z,98935.63
2022-10-03T22:14:05.136Z,98934.78
2022-10-03T22:16:15.452Z,98936.47
2022-10-03T22:18:20.542Z,98931.16
2022-10-03T22:20:24.536Z,98933.78
2022-10-03T22:22:36.295Z,98938.16
2022-10-03T22:24:47.980Z,98933.78
2022-10-03T22:26:54.910Z,98928.22
2022-10-03T22:29:02.950Z,98941.34
2022-10-03T22:31:13.154Z,98931.91
2022-10-03T22:33:19.970Z,98939.81
2022-10-03T22:35:34.607Z,98930.59
2022-10-03T22:37:38.834Z,98937.63
2022-10-03T22:39:43.454Z,98932.56
2022-10-03T22:41:48.554Z,98925.88
2022-10-03T22:43:53.011Z,98926.03
2022-10-03T22:45:57.032Z,98924.50
2022-10-03T22:48:02.111Z,98920.22
2022-10-03T22:50:09.043Z,98928.03
2022-10-03T22:52:18.456Z,98913.41
2022-10-03T22:54:21.556Z,98918.63
2022-10-03T22:56:45.375Z,98910.72
2022-10-03T22:58:48.544Z,98917.78
2022-10-03T23:00:53.093Z,98922.13
2022-10-03T23:02:59.842Z,98920.31
2022-10-03T23:05:04.771Z,98915.25
2022-10-03T23:07:40.093Z,98923.97
2022-10-03T23:09:49.568Z,98908.66
2022-10-03T23:11:55.820Z,98907.19
2022-10-03T23:14:02.234Z,98899.69
2022-10-03T23:16:11.254Z,98901.53
2022-10-03T23:18:39.025Z,98909.84
2022-10-03T23:20:53.248Z,98921.19
2022-10-03T23:23:00.556Z,98914.28
2022-10-03T23:25:08.165Z,98906.47
2022-10-03T23:27:39.481Z,98903.03
2022-10-03T23:29:42.566Z,98906.88
2022-10-03T23:32:02.120Z,98902.81
2022-10-03T23:34:05.434Z,98895.16
2022-10-03T23:36:15.574Z,98896.09
2022-10-03T23:39:02.575Z,98899.63
2022-10-03T23:41:06.481Z,98889.34
2022-10-03T23:43:31.846Z,98886.00
2022-10-03T23:45:36.668Z,98893.97
2022-10-03T23:47:41.760Z,98885.38
2022-10-03T23:49:47.314Z,98889.66
2022-10-03T23:51:50.420Z,98876.66
2022-10-03T23:53:58.419Z,98879.25
2022-10-03T23:56:03.616Z,98879.25
2022-10-03T23:58:18.533Z,98873.28
